sensor_id;sensor_type;location;lat;lon;timestamp;temperature;humidity
84807;DHT22;75042;43.504;3.714;2023-12-20T00:02:07;7.70;71.10
84807;DHT22;75042;43.504;3.714;2023-12-20T00:04:33;7.70;71.30
84807;DHT22;75042;43.504;3.714;2023-12-20T00:06:59;7.60;71.80
84807;DHT22;75042;43.504;3.714;2023-12-20T00:09:24;7.50;72.00
84807;DHT22;75042;43.504;3.714;2023-12-20T00:11:50;7.50;72.30
84807;DHT22;75042;43.504;3.714;2023-12-20T00:14:15;7.50;72.20
84807;DHT22;75042;43.504;3.714;2023-12-20T00:16:41;7.50;72.20
84807;DHT22;75042;43.504;3.714;2023-12-20T00:19:06;7.50;72.40
84807;DHT22;75042;43.504;3.714;2023-12-20T00:21:33;7.60;72.40
84807;DHT22;75042;43.504;3.714;2023-12-20T00:23:58;7.50;72.30
84807;DHT22;75042;43.504;3.714;2023-12-20T00:26:24;7.60;72.30
84807;DHT22;75042;43.504;3.714;2023-12-20T00:28:49;7.50;72.60
84807;DHT22;75042;43.504;3.714;2023-12-20T00:31:15;7.60;72.60
84807;DHT22;75042;43.504;3.714;2023-12-20T00:33:40;7.60;72.70
84807;DHT22;75042;43.504;3.714;2023-12-20T00:36:09;7.60;72.80
84807;DHT22;75042;43.504;3.714;2023-12-20T00:38:35;7.60;72.80
84807;DHT22;75042;43.504;3.714;2023-12-20T00:41:00;7.60;72.90
84807;DHT22;75042;43.504;3.714;2023-12-20T00:43:29;7.60;72.90
84807;DHT22;75042;43.504;3.714;2023-12-20T00:45:54;7.70;72.80
84807;DHT22;75042;43.504;3.714;2023-12-20T00:48:20;7.70;72.80
84807;DHT22;75042;43.504;3.714;2023-12-20T00:50:46;7.70;72.90
84807;DHT22;75042;43.504;3.714;2023-12-20T00:53:12;7.70;72.90
84807;DHT22;75042;43.504;3.714;2023-12-20T00:55:37;7.60;73.00
84807;DHT22;75042;43.504;3.714;2023-12-20T00:58:03;7.60;73.20
84807;DHT22;75042;43.504;3.714;2023-12-20T01:00:28;7.70;73.00
84807;DHT22;75042;43.504;3.714;2023-12-20T01:02:54;7.70;72.80
84807;DHT22;75042;43.504;3.714;2023-12-20T01:05:20;7.70;72.70
84807;DHT22;75042;43.504;3.714;2023-12-20T01:07:48;7.70;72.60
84807;DHT22;75042;43.504;3.714;2023-12-20T01:10:14;7.70;72.80
84807;DHT22;75042;43.504;3.714;2023-12-20T01:12:39;7.70;72.70
84807;DHT22;75042;43.504;3.714;2023-12-20T01:15:05;7.70;73.00
84807;DHT22;75042;43.504;3.714;2023-12-20T01:17:31;7.80;72.80
84807;DHT22;75042;43.504;3.714;2023-12-20T01:19:56;7.80;72.80
84807;DHT22;75042;43.504;3.714;2023-12-20T01:22:22;7.80;72.70
84807;DHT22;75042;43.504;3.714;2023-12-20T01:24:47;7.80;72.90
84807;DHT22;75042;43.504;3.714;2023-12-20T01:27:13;7.80;73.00
84807;DHT22;75042;43.504;3.714;2023-12-20T01:29:38;7.90;73.10
84807;DHT22;75042;43.504;3.714;2023-12-20T01:32:04;7.90;72.90
84807;DHT22;75042;43.504;3.714;2023-12-20T01:34:30;7.90;73.20
84807;DHT22;75042;43.504;3.714;2023-12-20T01:36:55;7.90;73.10
84807;DHT22;75042;43.504;3.714;2023-12-20T01:39:21;7.90;73.30
84807;DHT22;75042;43.504;3.714;2023-12-20T01:41:46;7.90;73.10
84807;DHT22;75042;43.504;3.714;2023-12-20T01:44:12;8.00;73.10
84807;DHT22;75042;43.504;3.714;2023-12-20T01:46:37;8.00;73.00
84807;DHT22;75042;43.504;3.714;2023-12-20T01:49:03;8.10;72.70
84807;DHT22;75042;43.504;3.714;2023-12-20T01:51:29;8.10;72.80
84807;DHT22;75042;43.504;3.714;2023-12-20T01:53:55;8.00;73.20
84807;DHT22;75042;43.504;3.714;2023-12-20T01:56:23;8.10;72.80
84807;DHT22;75042;43.504;3.714;2023-12-20T01:58:48;8.10;73.10
84807;DHT22;75042;43.504;3.714;2023-12-20T02:01:14;8.10;73.10
84807;DHT22;75042;43.504;3.714;2023-12-20T02:03:40;8.20;73.10
84807;DHT22;75042;43.504;3.714;2023-12-20T02:06:07;8.20;73.10
84807;DHT22;75042;43.504;3.714;2023-12-20T02:08:32;8.30;72.80
84807;DHT22;75042;43.504;3.714;2023-12-20T02:10:59;8.30;72.90
84807;DHT22;75042;43.504;3.714;2023-12-20T02:13:25;8.30;72.60
84807;DHT22;75042;43.504;3.714;2023-12-20T02:15:52;8.40;72.60
84807;DHT22;75042;43.504;3.714;2023-12-20T02:18:17;8.40;72.20
84807;DHT22;75042;43.504;3.714;2023-12-20T02:20:43;8.40;72.30
84807;DHT22;75042;43.504;3.714;2023-12-20T02:23:08;8.40;72.10
84807;DHT22;75042;43.504;3.714;2023-12-20T02:25:34;8.40;72.30
84807;DHT22;75042;43.504;3.714;2023-12-20T02:28:00;8.40;72.50
84807;DHT22;75042;43.504;3.714;2023-12-20T02:30:26;8.40;72.20
84807;DHT22;75042;43.504;3.714;2023-12-20T02:32:51;8.40;72.20
84807;DHT22;75042;43.504;3.714;2023-12-20T02:35:17;8.40;72.00
84807;DHT22;75042;43.504;3.714;2023-12-20T02:37:43;8.40;72.00
84807;DHT22;75042;43.504;3.714;2023-12-20T02:40:08;8.50;71.80
84807;DHT22;75042;43.504;3.714;2023-12-20T02:42:34;8.50;71.70
84807;DHT22;75042;43.504;3.714;2023-12-20T02:44:59;8.60;71.50
84807;DHT22;75042;43.504;3.714;2023-12-20T02:47:25;8.60;71.50
84807;DHT22;75042;43.504;3.714;2023-12-20T02:49:51;8.50;71.60
84807;DHT22;75042;43.504;3.714;2023-12-20T02:52:18;8.60;71.60
84807;DHT22;75042;43.504;3.714;2023-12-20T02:54:43;8.60;71.60
84807;DHT22;75042;43.504;3.714;2023-12-20T02:57:09;8.60;71.50
84807;DHT22;75042;43.504;3.714;2023-12-20T02:59:34;8.70;71.30
84807;DHT22;75042;43.504;3.714;2023-12-20T03:02:00;8.70;71.20
84807;DHT22;75042;43.504;3.714;2023-12-20T03:04:25;8.70;71.30
84807;DHT22;75042;43.504;3.714;2023-12-20T03:06:51;8.70;71.30
84807;DHT22;75042;43.504;3.714;2023-12-20T03:09:16;8.80;71.20
84807;DHT22;75042;43.504;3.714;2023-12-20T03:11:42;8.80;71.20
84807;DHT22;75042;43.504;3.714;2023-12-20T03:14:08;8.80;71.00
84807;DHT22;75042;43.504;3.714;2023-12-20T03:16:33;8.80;71.20
84807;DHT22;75042;43.504;3.714;2023-12-20T03:18:59;8.80;71.20
84807;DHT22;75042;43.504;3.714;2023-12-20T03:21:24;8.80;71.20
84807;DHT22;75042;43.504;3.714;2023-12-20T03:23:50;8.80;71.20
84807;DHT22;75042;43.504;3.714;2023-12-20T03:26:16;8.80;71.30
84807;DHT22;75042;43.504;3.714;2023-12-20T03:28:42;8.80;71.70
84807;DHT22;75042;43.504;3.714;2023-12-20T03:31:09;8.80;71.70
84807;DHT22;75042;43.504;3.714;2023-12-20T03:33:34;8.80;71.60
84807;DHT22;75042;43.504;3.714;2023-12-20T03:36:00;8.90;71.60
84807;DHT22;75042;43.504;3.714;2023-12-20T03:38:25;8.90;71.60
84807;DHT22;75042;43.504;3.714;2023-12-20T03:40:51;8.90;71.50
84807;DHT22;75042;43.504;3.714;2023-12-20T03:43:16;9.00;71.10
84807;DHT22;75042;43.504;3.714;2023-12-20T03:45:42;9.00;71.30
84807;DHT22;75042;43.504;3.714;2023-12-20T03:48:08;8.90;71.40
84807;DHT22;75042;43.504;3.714;2023-12-20T03:50:34;8.90;71.10
84807;DHT22;75042;43.504;3.714;2023-12-20T03:52:59;9.00;71.40
84807;DHT22;75042;43.504;3.714;2023-12-20T03:55:25;9.00;71.10
84807;DHT22;75042;43.504;3.714;2023-12-20T03:57:50;8.90;71.50
84807;DHT22;75042;43.504;3.714;2023-12-20T04:00:16;8.90;71.60
84807;DHT22;75042;43.504;3.714;2023-12-20T04:02:42;8.90;71.70
84807;DHT22;75042;43.504;3.714;2023-12-20T04:05:07;8.80;72.50
84807;DHT22;75042;43.504;3.714;2023-12-20T04:07:35;8.70;72.60
84807;DHT22;75042;43.504;3.714;2023-12-20T04:10:01;8.80;72.80
84807;DHT22;75042;43.504;3.714;2023-12-20T04:12:27;8.80;72.90
84807;DHT22;75042;43.504;3.714;2023-12-20T04:14:53;8.70;73.30
84807;DHT22;75042;43.504;3.714;2023-12-20T04:17:19;8.70;73.20
84807;DHT22;75042;43.504;3.714;2023-12-20T04:19:45;8.80;72.90
84807;DHT22;75042;43.504;3.714;2023-12-20T04:22:11;8.80;72.90
84807;DHT22;75042;43.504;3.714;2023-12-20T04:24:36;8.80;72.90
84807;DHT22;75042;43.504;3.714;2023-12-20T04:27:02;8.80;73.10
84807;DHT22;75042;43.504;3.714;2023-12-20T04:29:28;8.70;73.60
84807;DHT22;75042;43.504;3.714;2023-12-20T04:31:53;8.70;73.80
84807;DHT22;75042;43.504;3.714;2023-12-20T04:34:19;8.70;73.70
84807;DHT22;75042;43.504;3.714;2023-12-20T04:36:45;8.70;73.60
84807;DHT22;75042;43.504;3.714;2023-12-20T04:39:11;8.80;73.90
84807;DHT22;75042;43.504;3.714;2023-12-20T04:41:37;8.80;73.90
84807;DHT22;75042;43.504;3.714;2023-12-20T04:44:02;8.80;74.00
84807;DHT22;75042;43.504;3.714;2023-12-20T04:46:28;8.80;74.20
84807;DHT22;75042;43.504;3.714;2023-12-20T04:48:53;8.70;74.10
84807;DHT22;75042;43.504;3.714;2023-12-20T04:51:21;8.70;74.60
84807;DHT22;75042;43.504;3.714;2023-12-20T04:53:47;8.60;74.90
84807;DHT22;75042;43.504;3.714;2023-12-20T04:56:13;8.60;75.10
84807;DHT22;75042;43.504;3.714;2023-12-20T04:58:38;8.60;75.40
84807;DHT22;75042;43.504;3.714;2023-12-20T05:01:05;8.70;74.90
84807;DHT22;75042;43.504;3.714;2023-12-20T05:03:31;8.70;74.90
84807;DHT22;75042;43.504;3.714;2023-12-20T05:05:56;8.70;75.00
84807;DHT22;75042;43.504;3.714;2023-12-20T05:08:22;8.70;75.00
84807;DHT22;75042;43.504;3.714;2023-12-20T05:10:47;8.90;74.30
84807;DHT22;75042;43.504;3.714;2023-12-20T05:13:13;8.90;74.00
84807;DHT22;75042;43.504;3.714;2023-12-20T05:15:38;9.00;74.10
84807;DHT22;75042;43.504;3.714;2023-12-20T05:18:04;8.90;74.10
84807;DHT22;75042;43.504;3.714;2023-12-20T05:20:29;8.90;74.50
84807;DHT22;75042;43.504;3.714;2023-12-20T05:22:55;8.90;74.80
84807;DHT22;75042;43.504;3.714;2023-12-20T05:25:21;8.90;74.60
84807;DHT22;75042;43.504;3.714;2023-12-20T05:27:46;8.90;74.80
84807;DHT22;75042;43.504;3.714;2023-12-20T05:30:12;8.90;74.70
84807;DHT22;75042;43.504;3.714;2023-12-20T05:32:37;9.00;74.50
84807;DHT22;75042;43.504;3.714;2023-12-20T05:35:03;9.10;73.90
84807;DHT22;75042;43.504;3.714;2023-12-20T05:37:28;9.10;74.10
84807;DHT22;75042;43.504;3.714;2023-12-20T05:39:54;9.10;73.80
84807;DHT22;75042;43.504;3.714;2023-12-20T05:42:19;9.20;74.00
84807;DHT22;75042;43.504;3.714;2023-12-20T05:44:45;9.20;73.90
84807;DHT22;75042;43.504;3.714;2023-12-20T05:47:11;9.30;73.70
84807;DHT22;75042;43.504;3.714;2023-12-20T05:49:36;9.40;72.90
84807;DHT22;75042;43.504;3.714;2023-12-20T05:52:02;9.40;73.40
84807;DHT22;75042;43.504;3.714;2023-12-20T05:54:27;9.30;73.50
84807;DHT22;75042;43.504;3.714;2023-12-20T05:56:53;9.30;73.60
84807;DHT22;75042;43.504;3.714;2023-12-20T05:59:19;9.20;73.90
84807;DHT22;75042;43.504;3.714;2023-12-20T06:01:44;9.30;73.70
84807;DHT22;75042;43.504;3.714;2023-12-20T06:04:10;9.30;73.00
84807;DHT22;75042;43.504;3.714;2023-12-20T06:06:41;9.20;73.80
84807;DHT22;75042;43.504;3.714;2023-12-20T06:09:07;9.20;74.20
84807;DHT22;75042;43.504;3.714;2023-12-20T06:11:33;9.30;74.10
84807;DHT22;75042;43.504;3.714;2023-12-20T06:13:58;9.40;73.80
84807;DHT22;75042;43.504;3.714;2023-12-20T06:16:24;9.40;73.70
84807;DHT22;75042;43.504;3.714;2023-12-20T06:18:49;9.40;74.00
84807;DHT22;75042;43.504;3.714;2023-12-20T06:21:15;9.40;73.80
84807;DHT22;75042;43.504;3.714;2023-12-20T06:23:41;9.40;74.30
84807;DHT22;75042;43.504;3.714;2023-12-20T06:26:06;9.50;74.90
84807;DHT22;75042;43.504;3.714;2023-12-20T06:28:32;9.70;74.50
84807;DHT22;75042;43.504;3.714;2023-12-20T06:30:57;9.70;74.40
84807;DHT22;75042;43.504;3.714;2023-12-20T06:33:23;9.60;74.60
84807;DHT22;75042;43.504;3.714;2023-12-20T06:35:51;9.70;74.50
84807;DHT22;75042;43.504;3.714;2023-12-20T06:38:17;9.70;75.20
84807;DHT22;75042;43.504;3.714;2023-12-20T06:40:43;9.80;75.00
84807;DHT22;75042;43.504;3.714;2023-12-20T06:43:09;9.80;75.00
84807;DHT22;75042;43.504;3.714;2023-12-20T06:45:34;9.80;75.10
84807;DHT22;75042;43.504;3.714;2023-12-20T06:48:00;9.80;75.10
84807;DHT22;75042;43.504;3.714;2023-12-20T06:50:25;9.80;75.20
84807;DHT22;75042;43.504;3.714;2023-12-20T06:52:51;9.80;75.20
84807;DHT22;75042;43.504;3.714;2023-12-20T06:55:17;9.80;75.20
84807;DHT22;75042;43.504;3.714;2023-12-20T06:57:43;9.80;75.10
84807;DHT22;75042;43.504;3.714;2023-12-20T07:00:10;9.90;75.20
84807;DHT22;75042;43.504;3.714;2023-12-20T07:02:36;9.90;75.30
84807;DHT22;75042;43.504;3.714;2023-12-20T07:05:02;9.90;76.10
84807;DHT22;75042;43.504;3.714;2023-12-20T07:07:27;9.80;76.50
84807;DHT22;75042;43.504;3.714;2023-12-20T07:09:53;9.80;76.70
84807;DHT22;75042;43.504;3.714;2023-12-20T07:12:18;9.80;77.30
84807;DHT22;75042;43.504;3.714;2023-12-20T07:14:45;9.80;78.30
84807;DHT22;75042;43.504;3.714;2023-12-20T07:17:10;9.70;79.20
84807;DHT22;75042;43.504;3.714;2023-12-20T07:19:39;9.60;80.00
84807;DHT22;75042;43.504;3.714;2023-12-20T07:22:05;9.60;80.10
84807;DHT22;75042;43.504;3.714;2023-12-20T07:24:31;9.50;80.20
84807;DHT22;75042;43.504;3.714;2023-12-20T07:26:56;9.50;82.10
84807;DHT22;75042;43.504;3.714;2023-12-20T07:29:22;9.40;82.60
84807;DHT22;75042;43.504;3.714;2023-12-20T07:31:47;9.30;83.10
84807;DHT22;75042;43.504;3.714;2023-12-20T07:34:13;9.30;83.80
84807;DHT22;75042;43.504;3.714;2023-12-20T07:36:38;9.30;84.40
84807;DHT22;75042;43.504;3.714;2023-12-20T07:39:04;9.20;85.60
84807;DHT22;75042;43.504;3.714;2023-12-20T07:41:30;9.30;84.60
84807;DHT22;75042;43.504;3.714;2023-12-20T07:43:55;9.20;85.00
84807;DHT22;75042;43.504;3.714;2023-12-20T07:46:22;9.20;84.50
84807;DHT22;75042;43.504;3.714;2023-12-20T07:48:50;9.20;84.60
84807;DHT22;75042;43.504;3.714;2023-12-20T07:51:16;9.20;84.70
84807;DHT22;75042;43.504;3.714;2023-12-20T07:53:41;9.20;85.10
84807;DHT22;75042;43.504;3.714;2023-12-20T07:56:16;9.20;85.80
84807;DHT22;75042;43.504;3.714;2023-12-20T07:58:43;9.20;84.30
84807;DHT22;75042;43.504;3.714;2023-12-20T08:01:08;9.20;85.10
84807;DHT22;75042;43.504;3.714;2023-12-20T08:03:34;9.20;85.30
84807;DHT22;75042;43.504;3.714;2023-12-20T08:06:00;9.20;84.50
84807;DHT22;75042;43.504;3.714;2023-12-20T08:08:26;9.20;84.60
84807;DHT22;75042;43.504;3.714;2023-12-20T08:10:51;9.20;84.70
84807;DHT22;75042;43.504;3.714;2023-12-20T08:13:17;9.20;85.00
84807;DHT22;75042;43.504;3.714;2023-12-20T08:15:42;9.20;85.00
84807;DHT22;75042;43.504;3.714;2023-12-20T08:18:08;9.20;84.40
84807;DHT22;75042;43.504;3.714;2023-12-20T08:20:33;9.20;84.10
84807;DHT22;75042;43.504;3.714;2023-12-20T08:22:59;9.30;85.10
84807;DHT22;75042;43.504;3.714;2023-12-20T08:25:24;9.30;84.30
84807;DHT22;75042;43.504;3.714;2023-12-20T08:27:50;9.40;83.20
84807;DHT22;75042;43.504;3.714;2023-12-20T08:30:15;9.50;82.40
84807;DHT22;75042;43.504;3.714;2023-12-20T08:32:46;9.60;81.10
84807;DHT22;75042;43.504;3.714;2023-12-20T08:35:11;9.60;80.90
84807;DHT22;75042;43.504;3.714;2023-12-20T08:37:37;9.70;79.40
84807;DHT22;75042;43.504;3.714;2023-12-20T08:40:02;9.80;78.30
84807;DHT22;75042;43.504;3.714;2023-12-20T08:42:28;9.90;77.20
84807;DHT22;75042;43.504;3.714;2023-12-20T08:44:57;10.00;76.20
84807;DHT22;75042;43.504;3.714;2023-12-20T08:47:23;10.10;75.70
84807;DHT22;75042;43.504;3.714;2023-12-20T08:49:48;10.10;75.60
84807;DHT22;75042;43.504;3.714;2023-12-20T08:52:14;10.10;75.90
84807;DHT22;75042;43.504;3.714;2023-12-20T08:54:39;10.20;75.30
84807;DHT22;75042;43.504;3.714;2023-12-20T08:57:05;10.20;76.20
84807;DHT22;75042;43.504;3.714;2023-12-20T08:59:32;10.20;75.70
84807;DHT22;75042;43.504;3.714;2023-12-20T09:01:57;10.20;76.50
84807;DHT22;75042;43.504;3.714;2023-12-20T09:04:23;10.20;76.20
84807;DHT22;75042;43.504;3.714;2023-12-20T09:06:49;10.20;76.30
84807;DHT22;75042;43.504;3.714;2023-12-20T09:09:17;10.20;75.40
84807;DHT22;75042;43.504;3.714;2023-12-20T09:11:43;10.30;75.30
84807;DHT22;75042;43.504;3.714;2023-12-20T09:14:11;10.30;75.50
84807;DHT22;75042;43.504;3.714;2023-12-20T09:16:37;10.40;74.20
84807;DHT22;75042;43.504;3.714;2023-12-20T09:19:02;10.50;72.80
84807;DHT22;75042;43.504;3.714;2023-12-20T09:21:28;10.60;71.70
84807;DHT22;75042;43.504;3.714;2023-12-20T09:23:53;10.70;71.70
84807;DHT22;75042;43.504;3.714;2023-12-20T09:26:19;10.80;71.30
84807;DHT22;75042;43.504;3.714;2023-12-20T09:28:44;10.80;69.30
84807;DHT22;75042;43.504;3.714;2023-12-20T09:31:10;10.90;67.80
84807;DHT22;75042;43.504;3.714;2023-12-20T09:33:35;11.00;68.90
84807;DHT22;75042;43.504;3.714;2023-12-20T09:36:01;11.10;68.20
84807;DHT22;75042;43.504;3.714;2023-12-20T09:38:26;11.30;66.40
84807;DHT22;75042;43.504;3.714;2023-12-20T09:40:52;11.40;66.70
84807;DHT22;75042;43.504;3.714;2023-12-20T09:43:20;11.70;65.70
84807;DHT22;75042;43.504;3.714;2023-12-20T09:45:46;12.40;64.00
84807;DHT22;75042;43.504;3.714;2023-12-20T09:48:12;12.40;61.60
84807;DHT22;75042;43.504;3.714;2023-12-20T09:50:37;12.30;62.60
84807;DHT22;75042;43.504;3.714;2023-12-20T09:53:03;12.30;63.10
84807;DHT22;75042;43.504;3.714;2023-12-20T09:55:30;12.20;63.90
84807;DHT22;75042;43.504;3.714;2023-12-20T09:57:55;12.00;63.70
84807;DHT22;75042;43.504;3.714;2023-12-20T10:00:21;11.90;64.30
84807;DHT22;75042;43.504;3.714;2023-12-20T10:02:50;11.80;64.60
84807;DHT22;75042;43.504;3.714;2023-12-20T10:05:23;11.60;64.30
84807;DHT22;75042;43.504;3.714;2023-12-20T10:07:51;11.50;66.00
84807;DHT22;75042;43.504;3.714;2023-12-20T10:10:16;11.50;66.70
84807;DHT22;75042;43.504;3.714;2023-12-20T10:13:27;11.40;66.30
84807;DHT22;75042;43.504;3.714;2023-12-20T10:15:28;11.30;66.20
84807;DHT22;75042;43.504;3.714;2023-12-20T10:17:53;11.20;66.30
84807;DHT22;75042;43.504;3.714;2023-12-20T10:20:20;11.10;67.70
84807;DHT22;75042;43.504;3.714;2023-12-20T10:22:46;11.00;66.60
84807;DHT22;75042;43.504;3.714;2023-12-20T10:25:12;10.80;66.80
84807;DHT22;75042;43.504;3.714;2023-12-20T10:27:37;10.70;67.50
84807;DHT22;75042;43.504;3.714;2023-12-20T10:30:03;10.70;67.00
84807;DHT22;75042;43.504;3.714;2023-12-20T10:32:29;10.70;67.00
84807;DHT22;75042;43.504;3.714;2023-12-20T10:34:55;11.10;66.10
84807;DHT22;75042;43.504;3.714;2023-12-20T10:37:21;11.70;64.40
84807;DHT22;75042;43.504;3.714;2023-12-20T10:39:51;11.90;61.60
84807;DHT22;75042;43.504;3.714;2023-12-20T10:42:24;12.70;59.40
84807;DHT22;75042;43.504;3.714;2023-12-20T10:44:51;13.10;57.10
84807;DHT22;75042;43.504;3.714;2023-12-20T10:47:19;13.10;55.60
84807;DHT22;75042;43.504;3.714;2023-12-20T10:49:45;13.50;54.50
84807;DHT22;75042;43.504;3.714;2023-12-20T10:52:11;14.40;52.90
84807;DHT22;75042;43.504;3.714;2023-12-20T10:54:37;15.40;49.00
84807;DHT22;75042;43.504;3.714;2023-12-20T10:57:03;15.80;47.20
84807;DHT22;75042;43.504;3.714;2023-12-20T10:59:30;16.10;46.90
84807;DHT22;75042;43.504;3.714;2023-12-20T11:01:58;16.90;44.70
84807;DHT22;75042;43.504;3.714;2023-12-20T11:04:30;17.30;43.20
84807;DHT22;75042;43.504;3.714;2023-12-20T11:09:43;16.50;43.90
84807;DHT22;75042;43.504;3.714;2023-12-20T11:12:15;16.30;44.50
84807;DHT22;75042;43.504;3.714;2023-12-20T11:14:45;16.20;43.60
84807;DHT22;75042;43.504;3.714;2023-12-20T11:17:11;16.10;43.70
84807;DHT22;75042;43.504;3.714;2023-12-20T11:22:24;15.40;44.80
84807;DHT22;75042;43.504;3.714;2023-12-20T11:24:51;15.30;45.00
84807;DHT22;75042;43.504;3.714;2023-12-20T11:27:17;15.50;45.50
84807;DHT22;75042;43.504;3.714;2023-12-20T11:29:43;15.50;44.60
84807;DHT22;75042;43.504;3.714;2023-12-20T11:34:57;15.60;45.10
84807;DHT22;75042;43.504;3.714;2023-12-20T11:37:35;15.80;44.00
84807;DHT22;75042;43.504;3.714;2023-12-20T11:40:02;16.30;42.90
84807;DHT22;75042;43.504;3.714;2023-12-20T11:42:32;16.30;41.00
84807;DHT22;75042;43.504;3.714;2023-12-20T11:44:58;16.20;41.20
84807;DHT22;75042;43.504;3.714;2023-12-20T11:47:24;16.20;41.00
84807;DHT22;75042;43.504;3.714;2023-12-20T11:49:50;15.80;41.80
84807;DHT22;75042;43.504;3.714;2023-12-20T11:52:16;15.40;42.40
84807;DHT22;75042;43.504;3.714;2023-12-20T11:54:42;15.20;42.60
84807;DHT22;75042;43.504;3.714;2023-12-20T11:57:07;15.20;42.40
84807;DHT22;75042;43.504;3.714;2023-12-20T11:59:33;15.10;42.10
84807;DHT22;75042;43.504;3.714;2023-12-20T12:01:59;15.20;42.50
84807;DHT22;75042;43.504;3.714;2023-12-20T12:04:28;15.20;42.60
84807;DHT22;75042;43.504;3.714;2023-12-20T12:06:54;15.20;41.80
84807;DHT22;75042;43.504;3.714;2023-12-20T12:09:19;15.20;42.30
84807;DHT22;75042;43.504;3.714;2023-12-20T12:11:45;15.20;42.80
84807;DHT22;75042;43.504;3.714;2023-12-20T12:14:11;15.30;43.00
84807;DHT22;75042;43.504;3.714;2023-12-20T12:16:36;15.10;41.60
84807;DHT22;75042;43.504;3.714;2023-12-20T12:19:02;15.10;41.60
84807;DHT22;75042;43.504;3.714;2023-12-20T12:21:28;15.10;43.40
84807;DHT22;75042;43.504;3.714;2023-12-20T12:23:53;15.10;43.00
84807;DHT22;75042;43.504;3.714;2023-12-20T12:26:19;14.90;42.60
84807;DHT22;75042;43.504;3.714;2023-12-20T12:28:44;14.80;41.80
84807;DHT22;75042;43.504;3.714;2023-12-20T12:31:13;14.90;41.70
84807;DHT22;75042;43.504;3.714;2023-12-20T12:33:40;14.80;42.20
84807;DHT22;75042;43.504;3.714;2023-12-20T12:36:07;14.80;42.20
84807;DHT22;75042;43.504;3.714;2023-12-20T12:38:56;14.70;41.50
84807;DHT22;75042;43.504;3.714;2023-12-20T12:41:25;14.70;41.40
84807;DHT22;75042;43.504;3.714;2023-12-20T12:43:59;14.70;43.20
84807;DHT22;75042;43.504;3.714;2023-12-20T12:46:27;14.60;45.10
84807;DHT22;75042;43.504;3.714;2023-12-20T12:48:53;14.60;47.60
84807;DHT22;75042;43.504;3.714;2023-12-20T12:51:18;14.60;47.90
84807;DHT22;75042;43.504;3.714;2023-12-20T12:53:44;14.50;43.80
84807;DHT22;75042;43.504;3.714;2023-12-20T12:56:10;14.50;42.80
84807;DHT22;75042;43.504;3.714;2023-12-20T12:58:37;14.40;47.30
84807;DHT22;75042;43.504;3.714;2023-12-20T13:01:03;14.10;48.40
84807;DHT22;75042;43.504;3.714;2023-12-20T13:03:30;14.00;49.00
84807;DHT22;75042;43.504;3.714;2023-12-20T13:05:55;13.90;49.20
84807;DHT22;75042;43.504;3.714;2023-12-20T13:08:21;13.80;49.20
84807;DHT22;75042;43.504;3.714;2023-12-20T13:10:47;13.60;49.20
84807;DHT22;75042;43.504;3.714;2023-12-20T13:13:12;13.50;49.50
84807;DHT22;75042;43.504;3.714;2023-12-20T13:15:38;13.50;49.60
84807;DHT22;75042;43.504;3.714;2023-12-20T13:18:04;13.40;49.60
84807;DHT22;75042;43.504;3.714;2023-12-20T13:20:37;13.30;49.50
84807;DHT22;75042;43.504;3.714;2023-12-20T13:23:07;13.30;49.90
84807;DHT22;75042;43.504;3.714;2023-12-20T13:25:33;13.20;50.00
84807;DHT22;75042;43.504;3.714;2023-12-20T13:27:59;13.10;49.90
84807;DHT22;75042;43.504;3.714;2023-12-20T13:30:24;13.10;50.00
84807;DHT22;75042;43.504;3.714;2023-12-20T13:32:50;13.00;50.30
84807;DHT22;75042;43.504;3.714;2023-12-20T13:35:25;12.90;50.20
84807;DHT22;75042;43.504;3.714;2023-12-20T13:37:50;12.90;51.20
84807;DHT22;75042;43.504;3.714;2023-12-20T13:40:25;12.80;51.90
84807;DHT22;75042;43.504;3.714;2023-12-20T13:42:53;12.80;52.30
84807;DHT22;75042;43.504;3.714;2023-12-20T13:45:20;12.70;52.30
84807;DHT22;75042;43.504;3.714;2023-12-20T13:47:45;12.60;52.40
84807;DHT22;75042;43.504;3.714;2023-12-20T13:50:32;12.60;52.30
84807;DHT22;75042;43.504;3.714;2023-12-20T13:53:00;12.50;52.30
84807;DHT22;75042;43.504;3.714;2023-12-20T13:55:36;12.40;52.70
84807;DHT22;75042;43.504;3.714;2023-12-20T13:58:05;12.40;52.70
84807;DHT22;75042;43.504;3.714;2023-12-20T14:00:31;12.40;52.70
84807;DHT22;75042;43.504;3.714;2023-12-20T14:02:56;12.30;52.90
84807;DHT22;75042;43.504;3.714;2023-12-20T14:05:22;12.30;53.10
84807;DHT22;75042;43.504;3.714;2023-12-20T14:07:49;12.20;53.30
84807;DHT22;75042;43.504;3.714;2023-12-20T14:10:15;12.10;53.30
84807;DHT22;75042;43.504;3.714;2023-12-20T14:12:40;12.00;53.30
84807;DHT22;75042;43.504;3.714;2023-12-20T14:15:06;12.00;53.40
84807;DHT22;75042;43.504;3.714;2023-12-20T14:17:37;12.00;53.70
84807;DHT22;75042;43.504;3.714;2023-12-20T14:20:03;11.90;53.70
84807;DHT22;75042;43.504;3.714;2023-12-20T14:22:28;11.90;53.20
84807;DHT22;75042;43.504;3.714;2023-12-20T14:24:54;11.80;53.00
84807;DHT22;75042;43.504;3.714;2023-12-20T14:27:20;11.70;53.40
84807;DHT22;75042;43.504;3.714;2023-12-20T14:29:48;11.70;53.50
84807;DHT22;75042;43.504;3.714;2023-12-20T14:32:14;11.70;53.40
84807;DHT22;75042;43.504;3.714;2023-12-20T14:34:40;11.60;53.30
84807;DHT22;75042;43.504;3.714;2023-12-20T14:37:06;11.60;53.20
84807;DHT22;75042;43.504;3.714;2023-12-20T14:39:31;11.60;52.80
84807;DHT22;75042;43.504;3.714;2023-12-20T14:41:57;11.50;53.20
84807;DHT22;75042;43.504;3.714;2023-12-20T14:44:22;11.50;53.00
84807;DHT22;75042;43.504;3.714;2023-12-20T14:46:48;11.40;53.20
84807;DHT22;75042;43.504;3.714;2023-12-20T14:49:14;11.40;53.00
84807;DHT22;75042;43.504;3.714;2023-12-20T14:51:39;11.40;53.40
84807;DHT22;75042;43.504;3.714;2023-12-20T14:54:05;11.30;52.80
84807;DHT22;75042;43.504;3.714;2023-12-20T14:56:35;11.30;52.80
84807;DHT22;75042;43.504;3.714;2023-12-20T14:59:01;11.30;52.80
84807;DHT22;75042;43.504;3.714;2023-12-20T15:01:26;11.20;52.90
84807;DHT22;75042;43.504;3.714;2023-12-20T15:03:52;11.20;52.70
84807;DHT22;75042;43.504;3.714;2023-12-20T15:06:18;11.20;52.60
84807;DHT22;75042;43.504;3.714;2023-12-20T15:08:45;11.10;52.60
84807;DHT22;75042;43.504;3.714;2023-12-20T15:11:11;11.10;52.90
84807;DHT22;75042;43.504;3.714;2023-12-20T15:13:36;11.00;53.00
84807;DHT22;75042;43.504;3.714;2023-12-20T15:16:02;11.00;53.10
84807;DHT22;75042;43.504;3.714;2023-12-20T15:18:28;11.00;52.60
84807;DHT22;75042;43.504;3.714;2023-12-20T15:20:55;10.90;53.10
84807;DHT22;75042;43.504;3.714;2023-12-20T15:23:20;10.90;53.30
84807;DHT22;75042;43.504;3.714;2023-12-20T15:25:51;10.80;53.40
84807;DHT22;75042;43.504;3.714;2023-12-20T15:28:16;10.80;52.90
84807;DHT22;75042;43.504;3.714;2023-12-20T15:30:42;10.80;52.70
84807;DHT22;75042;43.504;3.714;2023-12-20T15:33:08;10.70;52.60
84807;DHT22;75042;43.504;3.714;2023-12-20T15:35:33;10.70;52.70
84807;DHT22;75042;43.504;3.714;2023-12-20T15:37:59;10.60;52.70
84807;DHT22;75042;43.504;3.714;2023-12-20T15:40:24;10.60;52.90
84807;DHT22;75042;43.504;3.714;2023-12-20T15:42:50;10.60;52.70